Time;durP1;ratioP1;P1;durP2;ratioP2;P2;SDS_P1;SDS_P2;PMS_P1;PMS_P2;Temp;Humidity;BMP_temperature;BMP_pressure;BME280_temperature;BME280_humidity;BME280_pressure;Samples;Min_cycle;Max_cycle;Signal;HPM_P1;HPM_P2
2023/07/04 00:01:11;;;;;;;8.63;3.22;;;;;;;;;;4906882;29;20044;-80
2023/07/04 00:03:39;;;;;;;9.70;3.00;;;;;;;;;;4917133;29;20047;-80
2023/07/04 00:06:10;;;;;;;9.88;3.28;;;;;;;;;;4910453;29;20059;-79
2023/07/04 00:08:36;;;;;;;6.18;2.90;;;;;;;;;;4907904;29;20439;-79
2023/07/04 00:11:03;;;;;;;8.27;2.95;;;;;;;;;;4941499;29;20039;-80
2023/07/04 00:13:30;;;;;;;6.72;2.70;;;;;;;;;;4911018;29;20044;-79
2023/07/04 00:15:56;;;;;;;6.60;2.50;;;;;;;;;;4941989;29;20043;-80
2023/07/04 00:18:24;;;;;;;9.35;2.97;;;;;;;;;;4897750;29;20378;-79
2023/07/04 00:20:55;;;;;;;7.82;2.83;;;;;;;;;;4905128;29;20043;-81
2023/07/04 00:23:29;;;;;;;8.70;2.70;;;;;;;;;;4902509;29;20106;-79
2023/07/04 00:25:55;;;;;;;8.60;2.90;;;;;;;;;;4925853;29;20459;-80
2023/07/04 00:28:27;;;;;;;11.95;3.28;;;;;;;;;;4911477;29;20122;-80
2023/07/04 00:30:54;;;;;;;9.32;3.15;;;;;;;;;;4927112;29;20040;-80
2023/07/04 00:33:24;;;;;;;8.85;3.15;;;;;;;;;;4927066;29;20087;-80
2023/07/04 00:35:55;;;;;;;9.30;2.78;;;;;;;;;;4909671;29;20036;-80
2023/07/04 00:38:20;;;;;;;8.95;3.10;;;;;;;;;;4942502;29;20401;-79
2023/07/04 00:40:46;;;;;;;9.73;3.03;;;;;;;;;;4909380;29;20051;-80
2023/07/04 00:43:12;;;;;;;8.43;3.03;;;;;;;;;;4918538;29;20058;-79
2023/07/04 00:45:42;;;;;;;7.55;2.90;;;;;;;;;;4930959;29;20047;-80
2023/07/04 00:48:10;;;;;;;6.80;3.00;;;;;;;;;;4910632;29;20449;-79
2023/07/04 00:50:39;;;;;;;6.45;2.67;;;;;;;;;;4925408;29;20130;-80
2023/07/04 00:53:08;;;;;;;10.30;3.35;;;;;;;;;;4919551;29;20032;-79
2023/07/04 00:55:37;;;;;;;9.32;3.25;;;;;;;;;;4910318;29;20115;-80
2023/07/04 00:58:06;;;;;;;9.07;3.17;;;;;;;;;;4924838;29;20063;-79
2023/07/04 01:00:32;;;;;;;5.97;3.03;;;;;;;;;;4941591;29;20597;-79
2023/07/04 01:03:10;;;;;;;8.07;2.92;;;;;;;;;;4926466;29;20035;-78
2023/07/04 01:06:21;;;;;;;10.77;3.10;;;;;;;;;;4939130;28;20524;-80
2023/07/04 01:08:47;;;;;;;8.13;2.65;;;;;;;;;;4890126;29;20039;-81
2023/07/04 01:11:25;;;;;;;11.45;2.88;;;;;;;;;;4910222;29;20043;-80
2023/07/04 01:13:51;;;;;;;6.35;2.72;;;;;;;;;;4918298;29;20074;-79
2023/07/04 01:16:18;;;;;;;8.98;3.08;;;;;;;;;;4925642;29;20063;-79
2023/07/04 01:18:46;;;;;;;7.93;3.03;;;;;;;;;;4900191;29;20039;-80
2023/07/04 01:21:13;;;;;;;9.05;3.10;;;;;;;;;;4903977;29;20054;-80
2023/07/04 01:23:52;;;;;;;9.48;3.13;;;;;;;;;;4921545;28;20035;-81
2023/07/04 01:26:45;;;;;;;8.20;2.90;;;;;;;;;;4916518;29;20059;-79
2023/07/04 01:29:14;;;;;;;10.13;3.03;;;;;;;;;;4927220;29;20032;-80
2023/07/04 01:31:43;;;;;;;6.55;2.83;;;;;;;;;;4926424;29;20465;-80
2023/07/04 01:34:10;;;;;;;9.43;2.80;;;;;;;;;;4931501;29;20496;-80
2023/07/04 01:36:38;;;;;;;6.50;2.60;;;;;;;;;;4912737;29;20043;-79
2023/07/04 01:39:05;;;;;;;7.60;3.10;;;;;;;;;;4927427;29;20056;-80
2023/07/04 01:41:32;;;;;;;8.25;2.90;;;;;;;;;;4920359;29;20046;-80
2023/07/04 01:44:05;;;;;;;9.05;2.95;;;;;;;;;;4914017;29;20054;-79
2023/07/04 01:46:32;;;;;;;8.15;3.22;;;;;;;;;;4928540;29;20526;-80
2023/07/04 01:48:58;;;;;;;9.47;3.13;;;;;;;;;;4914170;29;20735;-80
2023/07/04 01:51:28;;;;;;;8.88;2.95;;;;;;;;;;4928378;29;20047;-79
2023/07/04 01:53:54;;;;;;;8.13;3.13;;;;;;;;;;4909880;29;20039;-80
2023/07/04 01:56:20;;;;;;;7.07;2.58;;;;;;;;;;4910956;29;20047;-80
2023/07/04 01:58:45;;;;;;;8.18;3.33;;;;;;;;;;4913259;29;20032;-79
2023/07/04 02:01:31;;;;;;;10.38;2.90;;;;;;;;;;4911423;29;20048;-79
2023/07/04 02:03:56;;;;;;;8.80;2.70;;;;;;;;;;4882319;29;20036;-80
2023/07/04 02:06:22;;;;;;;7.82;3.00;;;;;;;;;;4892245;29;20402;-79
2023/07/04 02:08:47;;;;;;;7.60;2.92;;;;;;;;;;4867940;29;20119;-80
2023/07/04 02:11:12;;;;;;;8.88;3.15;;;;;;;;;;4867697;29;20612;-79
2023/07/04 02:13:39;;;;;;;7.20;2.90;;;;;;;;;;4876551;29;20044;-79
2023/07/04 02:16:05;;;;;;;8.40;2.95;;;;;;;;;;4845094;29;20037;-80
2023/07/04 02:18:30;;;;;;;8.45;3.50;;;;;;;;;;4875444;29;20124;-80
2023/07/04 02:20:56;;;;;;;12.43;3.42;;;;;;;;;;4875696;29;20513;-80
2023/07/04 02:23:21;;;;;;;8.38;3.13;;;;;;;;;;4891986;29;20517;-79
2023/07/04 02:25:48;;;;;;;6.97;3.03;;;;;;;;;;4858021;29;20041;-80
2023/07/04 02:28:14;;;;;;;7.25;2.95;;;;;;;;;;4875723;29;20040;-80
2023/07/04 02:30:39;;;;;;;9.38;3.47;;;;;;;;;;4874909;29;20041;-80
2023/07/04 02:33:05;;;;;;;8.52;2.92;;;;;;;;;;4890992;29;20123;-81
2023/07/04 02:35:31;;;;;;;6.65;2.88;;;;;;;;;;4889868;29;20063;-80
2023/07/04 02:37:57;;;;;;;9.77;3.50;;;;;;;;;;4866574;29;20068;-80
2023/07/04 02:40:22;;;;;;;7.78;3.42;;;;;;;;;;4870351;29;20150;-81
2023/07/04 02:42:50;;;;;;;8.80;3.17;;;;;;;;;;4904469;29;20052;-79
2023/07/04 02:45:16;;;;;;;7.38;3.25;;;;;;;;;;4911641;29;20038;-80
2023/07/04 02:47:41;;;;;;;7.60;2.90;;;;;;;;;;4913376;29;20555;-79
2023/07/04 02:50:07;;;;;;;6.10;2.80;;;;;;;;;;4912615;29;20453;-80
2023/07/04 02:52:32;;;;;;;7.57;3.28;;;;;;;;;;4935151;29;20071;-80
2023/07/04 02:55:03;;;;;;;8.95;3.13;;;;;;;;;;4894809;29;20043;-79
2023/07/04 02:57:29;;;;;;;9.63;3.40;;;;;;;;;;4892472;29;20061;-80
2023/07/04 02:59:55;;;;;;;8.38;3.42;;;;;;;;;;4899745;29;20400;-80
2023/07/04 03:02:21;;;;;;;8.32;2.97;;;;;;;;;;4911929;29;20122;-80
2023/07/04 03:04:47;;;;;;;8.75;3.20;;;;;;;;;;4923710;29;20071;-80
2023/07/04 03:07:13;;;;;;;7.20;2.92;;;;;;;;;;4911036;29;20226;-80
2023/07/04 03:09:38;;;;;;;13.30;3.70;;;;;;;;;;4912556;29;20126;-79
2023/07/04 03:12:04;;;;;;;10.48;4.32;;;;;;;;;;4943179;28;20379;-80
2023/07/04 03:14:30;;;;;;;7.57;3.22;;;;;;;;;;4911767;29;20502;-80
2023/07/04 03:16:55;;;;;;;7.40;3.15;;;;;;;;;;4933572;29;20035;-80
2023/07/04 03:19:21;;;;;;;10.82;3.72;;;;;;;;;;4912799;29;20504;-80
2023/07/04 03:21:46;;;;;;;9.27;3.55;;;;;;;;;;4909164;29;20039;-79
2023/07/04 03:24:14;;;;;;;9.07;3.38;;;;;;;;;;4911892;29;20046;-80
2023/07/04 03:26:52;;;;;;;;;;;;;;;;;;4877515;29;20036;-81
2023/07/04 03:29:18;;;;;;;8.68;3.50;;;;;;;;;;4918511;29;20641;-80
2023/07/04 03:31:43;;;;;;;7.40;3.45;;;;;;;;;;4927558;29;20035;-80
2023/07/04 03:34:14;;;;;;;8.57;3.40;;;;;;;;;;4929266;29;20102;-80
2023/07/04 03:36:39;;;;;;;10.35;2.97;;;;;;;;;;4927677;29;20644;-80
2023/07/04 03:39:05;;;;;;;6.68;3.65;;;;;;;;;;4913568;29;20054;-79
2023/07/04 03:41:31;;;;;;;9.00;3.38;;;;;;;;;;4938397;28;20574;-80
2023/07/04 03:43:57;;;;;;;6.50;3.10;;;;;;;;;;4911443;29;20064;-79
2023/07/04 03:46:22;;;;;;;9.52;3.60;;;;;;;;;;4910114;29;20060;-79
2023/07/04 03:48:48;;;;;;;9.40;3.47;;;;;;;;;;4911242;29;20452;-80
2023/07/04 03:51:14;;;;;;;5.90;3.03;;;;;;;;;;4942312;29;20032;-80
2023/07/04 03:53:40;;;;;;;10.20;3.28;;;;;;;;;;4925695;29;20048;-80
2023/07/04 03:56:06;;;;;;;8.73;3.60;;;;;;;;;;4914842;29;20031;-79
2023/07/04 03:58:34;;;;;;;8.75;3.40;;;;;;;;;;4910931;29;20111;-80
2023/07/04 04:01:00;;;;;;;;;;;;;;;;;;4943005;29;20043;-80
2023/07/04 04:03:25;;;;;;;7.35;3.20;;;;;;;;;;4912761;29;19918;-80
2023/07/04 04:05:51;;;;;;;9.43;3.35;;;;;;;;;;4919306;29;20095;-80
2023/07/04 04:08:16;;;;;;;9.90;3.60;;;;;;;;;;4927548;29;20059;-79
2023/07/04 04:10:45;;;;;;;11.75;3.63;;;;;;;;;;4921919;29;20035;-79
2023/07/04 04:13:11;;;;;;;10.45;3.60;;;;;;;;;;4943326;29;20106;-79
2023/07/04 04:15:36;;;;;;;7.05;3.10;;;;;;;;;;4904966;29;20043;-80
2023/07/04 04:18:02;;;;;;;8.07;3.45;;;;;;;;;;4918379;29;20053;-80
2023/07/04 04:20:27;;;;;;;7.93;3.60;;;;;;;;;;4909909;29;20102;-80
2023/07/04 04:22:53;;;;;;;8.68;3.53;;;;;;;;;;4894375;29;20500;-80
2023/07/04 04:25:18;;;;;;;9.05;3.55;;;;;;;;;;4922265;29;20098;-79
2023/07/04 04:27:47;;;;;;;7.63;3.25;;;;;;;;;;4930588;29;20036;-79
2023/07/04 04:30:13;;;;;;;6.68;3.22;;;;;;;;;;4908185;29;20036;-79
2023/07/04 04:32:40;;;;;;;9.30;3.47;;;;;;;;;;4910379;29;20461;-79
2023/07/04 04:35:08;;;;;;;8.70;3.40;;;;;;;;;;4930944;29;20039;-79
2023/07/04 04:37:34;;;;;;;8.55;3.42;;;;;;;;;;4923786;29;20043;-79
2023/07/04 04:40:00;;;;;;;7.68;3.38;;;;;;;;;;4926989;29;20036;-80
2023/07/04 04:42:28;;;;;;;7.25;3.20;;;;;;;;;;4926472;29;20385;-80
2023/07/04 04:44:53;;;;;;;8.50;3.45;;;;;;;;;;4926329;29;20035;-87
2023/07/04 04:47:25;;;;;;;9.40;3.78;;;;;;;;;;4926597;29;20106;-82
2023/07/04 04:49:51;;;;;;;8.60;3.47;;;;;;;;;;4919371;29;20031;-83
2023/07/04 04:52:19;;;;;;;6.78;3.17;;;;;;;;;;4917361;29;20094;-82
2023/07/04 04:54:53;;;;;;;10.13;3.47;;;;;;;;;;4911811;29;20463;-83
2023/07/04 04:57:18;;;;;;;7.93;3.22;;;;;;;;;;4909699;29;20043;-81
2023/07/04 04:59:44;;;;;;;10.63;3.63;;;;;;;;;;4914312;29;20118;-82
2023/07/04 05:02:09;;;;;;;7.50;3.25;;;;;;;;;;4914285;29;20043;-82
2023/07/04 05:04:35;;;;;;;8.95;3.55;;;;;;;;;;4915383;29;20106;-82
2023/07/04 05:07:00;;;;;;;7.95;2.92;;;;;;;;;;4914033;29;20036;-82
2023/07/04 05:09:27;;;;;;;7.72;3.15;;;;;;;;;;4917532;29;20138;-80
2023/07/04 05:11:52;;;;;;;9.10;3.40;;;;;;;;;;4928475;29;20159;-78
2023/07/04 05:14:17;;;;;;;8.00;3.35;;;;;;;;;;4929305;29;20544;-82
2023/07/04 05:16:43;;;;;;;9.77;3.40;;;;;;;;;;4932283;29;20039;-83
2023/07/04 05:19:08;;;;;;;7.07;3.45;;;;;;;;;;4914155;29;20032;-81
2023/07/04 05:21:36;;;;;;;7.43;3.10;;;;;;;;;;4913651;29;20047;-80
2023/07/04 05:24:02;;;;;;;9.25;3.15;;;;;;;;;;4933919;29;20043;-83
2023/07/04 05:26:28;;;;;;;8.23;3.75;;;;;;;;;;4919389;29;20046;-82
2023/07/04 05:28:56;;;;;;;6.82;3.42;;;;;;;;;;4906150;29;20028;-83
2023/07/04 05:31:25;;;;;;;9.07;3.25;;;;;;;;;;4913119;29;20097;-82
2023/07/04 05:33:52;;;;;;;10.32;3.22;;;;;;;;;;4914384;29;20040;-83
2023/07/04 05:36:21;;;;;;;8.07;2.88;;;;;;;;;;4913044;29;20047;-83
2023/07/04 05:38:48;;;;;;;7.82;3.28;;;;;;;;;;4927464;29;20480;-83
2023/07/04 05:41:14;;;;;;;7.28;3.08;;;;;;;;;;4944464;29;20040;-83
2023/07/04 05:43:41;;;;;;;13.07;3.45;;;;;;;;;;4907822;29;20047;-83
2023/07/04 05:46:07;;;;;;;7.60;3.30;;;;;;;;;;4929313;29;20042;-83
2023/07/04 05:48:33;;;;;;;10.07;3.97;;;;;;;;;;4912899;29;20086;-82
2023/07/04 05:51:01;;;;;;;7.78;3.10;;;;;;;;;;4930376;28;20098;-82
2023/07/04 05:53:31;;;;;;;10.05;3.30;;;;;;;;;;4929200;29;20396;-81
2023/07/04 05:56:22;;;;;;;9.27;3.38;;;;;;;;;;4906957;29;20058;-82
2023/07/04 05:59:01;;;;;;;9.00;4.03;;;;;;;;;;4930325;29;20035;-83
2023/07/04 06:01:44;;;;;;;11.07;3.55;;;;;;;;;;4928711;29;20052;-82
2023/07/04 06:04:11;;;;;;;11.05;3.90;;;;;;;;;;4913699;29;20039;-82
2023/07/04 06:06:56;;;;;;;10.23;3.83;;;;;;;;;;4927921;29;20095;-81
2023/07/04 06:09:25;;;;;;;8.57;3.25;;;;;;;;;;4902277;29;20035;-82
2023/07/04 06:11:50;;;;;;;8.73;2.72;;;;;;;;;;4913178;29;20035;-81
2023/07/04 06:14:18;;;;;;;7.88;3.38;;;;;;;;;;4928542;29;20095;-82
2023/07/04 06:16:43;;;;;;;7.97;2.90;;;;;;;;;;4927555;29;20131;-81
2023/07/04 06:19:09;;;;;;;7.03;3.00;;;;;;;;;;4915135;29;20559;-82
2023/07/04 06:21:40;;;;;;;10.25;3.38;;;;;;;;;;4934527;29;20039;-80
2023/07/04 06:24:06;;;;;;;10.13;4.18;;;;;;;;;;4912496;29;20099;-81
2023/07/04 06:26:32;;;;;;;7.97;3.30;;;;;;;;;;4907224;29;20048;-82
2023/07/04 06:28:59;;;;;;;8.05;3.50;;;;;;;;;;4928947;29;20488;-81
2023/07/04 06:31:25;;;;;;;8.13;3.05;;;;;;;;;;4922520;29;20385;-80
2023/07/04 06:33:50;;;;;;;9.35;3.30;;;;;;;;;;4897403;29;20134;-82
2023/07/04 06:36:16;;;;;;;7.70;2.75;;;;;;;;;;4920186;29;20068;-80
2023/07/04 06:38:42;;;;;;;7.90;2.85;;;;;;;;;;4929076;29;20138;-79
2023/07/04 06:41:11;;;;;;;10.25;3.40;;;;;;;;;;4911130;29;20606;-80
2023/07/04 06:43:48;;;;;;;9.23;3.63;;;;;;;;;;4912297;29;20127;-80
2023/07/04 06:46:16;;;;;;;10.07;3.42;;;;;;;;;;4895777;29;20509;-81
2023/07/04 06:48:52;;;;;;;8.23;3.25;;;;;;;;;;4929380;29;20562;-81
2023/07/04 06:51:19;;;;;;;7.22;2.60;;;;;;;;;;4912448;29;20058;-81
2023/07/04 06:53:45;;;;;;;10.00;2.90;;;;;;;;;;4911324;29;20396;-81
2023/07/04 06:56:20;;;;;;;9.20;3.10;;;;;;;;;;4912556;29;20032;-80
2023/07/04 06:58:51;;;;;;;6.57;2.90;;;;;;;;;;4910839;29;20156;-80
2023/07/04 07:01:19;;;;;;;8.25;2.70;;;;;;;;;;4917578;29;20153;-81
2023/07/04 07:03:44;;;;;;;6.20;2.67;;;;;;;;;;4918269;29;20522;-81
2023/07/04 07:06:15;;;;;;;9.20;2.95;;;;;;;;;;4927804;29;20067;-81
2023/07/04 07:08:41;;;;;;;7.65;3.10;;;;;;;;;;4919026;29;20046;-79
2023/07/04 07:11:09;;;;;;;7.90;3.40;;;;;;;;;;4912019;29;20044;-79
2023/07/04 07:13:38;;;;;;;8.52;3.10;;;;;;;;;;4895737;29;20479;-81
2023/07/04 07:16:24;;;;;;;9.43;3.35;;;;;;;;;;4924406;29;20071;-81
2023/07/04 07:18:54;;;;;;;6.35;2.97;;;;;;;;;;4924064;29;20388;-80
2023/07/04 07:21:22;;;;;;;8.18;2.88;;;;;;;;;;4923386;29;20055;-79
2023/07/04 07:23:48;;;;;;;8.73;2.70;;;;;;;;;;4912702;29;20114;-80
2023/07/04 07:26:17;;;;;;;8.68;2.88;;;;;;;;;;4913466;29;20035;-81
2023/07/04 07:28:43;;;;;;;4.82;2.38;;;;;;;;;;4940937;28;20106;-79
2023/07/04 07:31:18;;;;;;;8.70;3.25;;;;;;;;;;4931475;29;20047;-80
2023/07/04 07:33:48;;;;;;;6.03;2.50;;;;;;;;;;4912098;29;20043;-79
2023/07/04 07:36:23;;;;;;;9.18;2.55;;;;;;;;;;4926454;29;20067;-81
2023/07/04 07:38:50;;;;;;;7.60;2.38;;;;;;;;;;4928021;29;20111;-80
2023/07/04 07:41:16;;;;;;;5.72;2.35;;;;;;;;;;4910350;29;20570;-81
2023/07/04 07:43:42;;;;;;;5.80;2.40;;;;;;;;;;4923009;29;20121;-81
2023/07/04 07:46:09;;;;;;;5.95;2.22;;;;;;;;;;4911399;29;20039;-80
2023/07/04 07:48:34;;;;;;;6.30;1.90;;;;;;;;;;4916847;29;20043;-78
2023/07/04 07:51:01;;;;;;;6.38;2.00;;;;;;;;;;4909518;29;20043;-80
2023/07/04 07:53:27;;;;;;;7.78;1.80;;;;;;;;;;4912042;29;20035;-80
2023/07/04 07:55:52;;;;;;;6.28;1.92;;;;;;;;;;4927362;29;20066;-79
2023/07/04 07:58:18;;;;;;;5.88;1.88;;;;;;;;;;4927019;29;20046;-80
2023/07/04 08:00:46;;;;;;;7.47;2.20;;;;;;;;;;4917988;29;20070;-80
2023/07/04 08:03:12;;;;;;;5.00;2.00;;;;;;;;;;4927992;29;20468;-80
2023/07/04 08:05:41;;;;;;;6.13;1.70;;;;;;;;;;4910211;29;20035;-81
2023/07/04 08:08:10;;;;;;;6.72;2.00;;;;;;;;;;4904002;29;20156;-81
2023/07/04 08:10:36;;;;;;;5.00;1.83;;;;;;;;;;4909326;29;20047;-81
2023/07/04 08:13:02;;;;;;;4.18;1.67;;;;;;;;;;4923450;29;20404;-81
2023/07/04 08:15:27;;;;;;;6.97;1.65;;;;;;;;;;4927244;29;20036;-81
2023/07/04 08:17:53;;;;;;;5.30;2.08;;;;;;;;;;4927263;29;20055;-81
2023/07/04 08:20:21;;;;;;;5.95;1.83;;;;;;;;;;4912408;29;20686;-80
2023/07/04 08:22:47;;;;;;;5.53;1.83;;;;;;;;;;4911845;29;20396;-81
2023/07/04 08:25:12;;;;;;;3.80;1.60;;;;;;;;;;4899702;29;20035;-82
2023/07/04 08:27:38;;;;;;;4.47;1.75;;;;;;;;;;4914765;29;20039;-82
2023/07/04 08:30:04;;;;;;;7.00;1.80;;;;;;;;;;4911880;29;20036;-81
2023/07/04 08:32:29;;;;;;;5.57;1.80;;;;;;;;;;4904140;29;20105;-82
2023/07/04 08:35:00;;;;;;;4.32;1.83;;;;;;;;;;4910869;29;20038;-80
2023/07/04 08:37:26;;;;;;;5.75;1.45;;;;;;;;;;4918360;29;20507;-81
2023/07/04 08:39:51;;;;;;;5.70;1.48;;;;;;;;;;4926279;29;20076;-81
2023/07/04 08:42:18;;;;;;;23.40;2.65;;;;;;;;;;4909352;29;20067;-80
2023/07/04 08:44:44;;;;;;;11.40;2.00;;;;;;;;;;4911057;29;20373;-81
2023/07/04 08:47:14;;;;;;;4.68;1.42;;;;;;;;;;4939906;29;20040;-82
2023/07/04 08:49:53;;;;;;;5.18;1.50;;;;;;;;;;4917537;29;20544;-82
2023/07/04 08:52:23;;;;;;;6.55;1.70;;;;;;;;;;4923794;29;20056;-82
2023/07/04 08:54:53;;;;;;;6.13;2.05;;;;;;;;;;4910947;29;20039;-80
2023/07/04 08:57:37;;;;;;;5.47;1.80;;;;;;;;;;4941997;29;20588;-82
2023/07/04 09:00:12;;;;;;;6.45;1.70;;;;;;;;;;4942212;29;20048;-81
2023/07/04 09:02:49;;;;;;;5.25;1.83;;;;;;;;;;4910791;29;20036;-82
2023/07/04 09:05:33;;;;;;;;;;;;;;;;;;4927720;29;20046;-81
2023/07/04 09:08:28;;;;;;;6.00;1.60;;;;;;;;;;4927722;29;20274;-82
2023/07/04 09:10:57;;;;;;;5.15;1.70;;;;;;;;;;4924681;28;20091;-80
2023/07/04 09:13:26;;;;;;;6.47;1.50;;;;;;;;;;4910260;29;20036;-81
2023/07/04 09:15:52;;;;;;;7.25;1.63;;;;;;;;;;4924747;29;20044;-80
2023/07/04 09:18:48;;;;;;;5.60;1.60;;;;;;;;;;4926918;29;20523;-80
2023/07/04 09:21:19;;;;;;;5.07;1.63;;;;;;;;;;4924743;29;20036;-80
2023/07/04 09:23:46;;;;;;;5.13;1.60;;;;;;;;;;4892321;29;20396;-82
2023/07/04 09:26:16;;;;;;;4.43;1.55;;;;;;;;;;4911311;29;20595;-81
2023/07/04 09:28:43;;;;;;;5.57;1.33;;;;;;;;;;4943340;29;20043;-82
2023/07/04 09:31:31;;;;;;;;;;;;;;;;;;4926493;29;20421;-82
2023/07/04 09:34:18;;;;;;;5.80;1.60;;;;;;;;;;4920383;29;19925;-83
2023/07/04 09:36:43;;;;;;;4.75;1.40;;;;;;;;;;4921259;28;20031;-80
2023/07/04 09:39:09;;;;;;;5.28;1.52;;;;;;;;;;4910688;29;20036;-81
2023/07/04 09:41:39;;;;;;;7.70;1.45;;;;;;;;;;4892964;29;20138;-81
2023/07/04 09:44:31;;;;;;;6.35;1.58;;;;;;;;;;4916794;29;20048;-81
2023/07/04 09:46:58;;;;;;;5.63;1.55;;;;;;;;;;4912076;29;20046;-81
2023/07/04 09:49:27;;;;;;;;;;;;;;;;;;4921982;29;20039;-81
2023/07/04 09:52:01;;;;;;;5.85;1.40;;;;;;;;;;4942185;29;19922;-80
2023/07/04 09:54:27;;;;;;;4.50;1.20;;;;;;;;;;4917717;29;20515;-81
2023/07/04 09:56:52;;;;;;;4.97;1.40;;;;;;;;;;4905836;29;20089;-82
2023/07/04 09:59:22;;;;;;;5.10;1.20;;;;;;;;;;4913038;29;20040;-80
2023/07/04 10:01:50;;;;;;;3.53;1.10;;;;;;;;;;4912476;29;20067;-81
2023/07/04 10:04:33;;;;;;;4.22;1.00;;;;;;;;;;4912459;29;20045;-81
2023/07/04 10:06:59;;;;;;;4.03;1.10;;;;;;;;;;4917447;29;20040;-83
2023/07/04 10:09:25;;;;;;;3.03;0.90;;;;;;;;;;4902904;29;20066;-82
2023/07/04 10:12:06;;;;;;;5.85;1.13;;;;;;;;;;4910347;28;20482;-81
2023/07/04 10:14:34;;;;;;;2.72;1.00;;;;;;;;;;4909283;29;20035;-82
2023/07/04 10:17:17;;;;;;;3.83;1.30;;;;;;;;;;4912122;29;20063;-81
2023/07/04 10:19:44;;;;;;;5.72;1.30;;;;;;;;;;4919122;29;20050;-82
2023/07/04 10:22:10;;;;;;;5.90;1.40;;;;;;;;;;4927548;29;20543;-80
2023/07/04 10:24:44;;;;;;;4.90;1.25;;;;;;;;;;4926502;29;20067;-78
2023/07/04 10:27:11;;;;;;;4.43;1.13;;;;;;;;;;4911004;29;20042;-79
2023/07/04 10:29:41;;;;;;;4.78;1.25;;;;;;;;;;4912708;29;20094;-79
2023/07/04 10:32:13;;;;;;;5.13;1.38;;;;;;;;;;4926727;29;20150;-78
2023/07/04 10:34:39;;;;;;;3.78;1.10;;;;;;;;;;4911964;29;20040;-78
2023/07/04 10:37:05;;;;;;;3.63;1.20;;;;;;;;;;4910275;29;20098;-78
2023/07/04 10:39:32;;;;;;;4.07;1.20;;;;;;;;;;4925584;29;20127;-79
2023/07/04 10:42:17;;;;;;;5.13;1.40;;;;;;;;;;4927018;29;20047;-79
2023/07/04 10:44:46;;;;;;;3.85;1.40;;;;;;;;;;4909170;29;20094;-79
2023/07/04 10:47:26;;;;;;;5.10;1.58;;;;;;;;;;4936841;28;20097;-81
2023/07/04 10:50:02;;;;;;;5.10;1.95;;;;;;;;;;4926582;29;20070;-81
2023/07/04 10:52:35;;;;;;;7.55;1.65;;;;;;;;;;4926674;29;20039;-81
2023/07/04 10:55:01;;;;;;;4.70;1.42;;;;;;;;;;4908576;29;20039;-81
2023/07/04 10:57:36;;;;;;;5.82;1.60;;;;;;;;;;4924893;29;20036;-80
2023/07/04 11:00:09;;;;;;;5.72;1.83;;;;;;;;;;4911408;29;20508;-81
2023/07/04 11:02:40;;;;;;;4.47;1.60;;;;;;;;;;4909716;29;20064;-81
2023/07/04 11:05:11;;;;;;;5.78;1.90;;;;;;;;;;4904079;29;20051;-82
2023/07/04 11:07:39;;;;;;;4.05;1.40;;;;;;;;;;4925950;29;20059;-81
2023/07/04 11:10:06;;;;;;;5.45;1.60;;;;;;;;;;4942068;29;20488;-82
2023/07/04 11:12:34;;;;;;;5.32;1.55;;;;;;;;;;4926410;29;20403;-81
2023/07/04 11:15:03;;;;;;;6.82;1.70;;;;;;;;;;4927584;29;20066;-81
2023/07/04 11:17:32;;;;;;;4.70;1.65;;;;;;;;;;4903027;29;20123;-80
2023/07/04 11:20:14;;;;;;;6.03;2.08;;;;;;;;;;4916716;29;20142;-81
2023/07/04 11:22:52;;;;;;;7.00;1.73;;;;;;;;;;4910061;29;20510;-81
2023/07/04 11:25:41;;;;;;;4.13;1.63;;;;;;;;;;4924877;29;20059;-81
2023/07/04 11:28:34;;;;;;;7.55;1.90;;;;;;;;;;4917551;29;20110;-80
2023/07/04 11:31:11;;;;;;;5.53;1.77;;;;;;;;;;4926289;29;20107;-80
2023/07/04 11:34:01;;;;;;;;;;;;;;;;;;4935108;29;20032;-80
2023/07/04 11:36:29;;;;;;;4.43;1.58;;;;;;;;;;4902397;29;19925;-82
2023/07/04 11:39:00;;;;;;;5.15;1.70;;;;;;;;;;4907208;29;20039;-80
2023/07/04 11:41:32;;;;;;;4.57;2.10;;;;;;;;;;4910753;29;20542;-81
2023/07/04 11:44:00;;;;;;;17.77;2.63;;;;;;;;;;4901512;29;20579;-81
2023/07/04 11:46:28;;;;;;;7.43;2.30;;;;;;;;;;4910067;29;20074;-80
2023/07/04 11:48:55;;;;;;;9.20;2.33;;;;;;;;;;4919178;29;20038;-80
2023/07/04 11:51:22;;;;;;;6.13;1.85;;;;;;;;;;4925897;29;20039;-80
2023/07/04 11:54:06;;;;;;;5.07;1.90;;;;;;;;;;4901558;29;20067;-80
2023/07/04 11:56:32;;;;;;;6.43;1.83;;;;;;;;;;4901385;29;20039;-80
2023/07/04 11:59:18;;;;;;;8.50;1.92;;;;;;;;;;4944658;29;20496;-81
2023/07/04 12:01:56;;;;;;;6.68;1.83;;;;;;;;;;4913420;29;20095;-80
2023/07/04 12:04:22;;;;;;;8.73;2.20;;;;;;;;;;4905579;28;20040;-81
2023/07/04 12:07:32;;;;;;;5.00;1.83;;;;;;;;;;4906240;29;20046;-81
2023/07/04 12:10:00;;;;;;;6.70;1.90;;;;;;;;;;4915315;29;20918;-81
2023/07/04 12:12:28;;;;;;;7.18;2.00;;;;;;;;;;4941291;29;20527;-82
2023/07/04 12:15:01;;;;;;;4.65;1.88;;;;;;;;;;4911559;29;20044;-84
2023/07/04 12:17:26;;;;;;;5.78;2.00;;;;;;;;;;4911178;29;20776;-84
2023/07/04 12:20:00;;;;;;;5.25;1.90;;;;;;;;;;4912768;29;20098;-85
2023/07/04 12:22:26;;;;;;;7.60;1.83;;;;;;;;;;4912470;29;21145;-86
2023/07/04 12:24:52;;;;;;;6.13;1.90;;;;;;;;;;4901622;29;20122;-84
2023/07/04 12:27:18;;;;;;;5.55;1.70;;;;;;;;;;4911817;29;20040;-84
2023/07/04 12:29:45;;;;;;;4.80;1.73;;;;;;;;;;4913012;29;20055;-86
2023/07/04 12:32:17;;;;;;;5.47;1.60;;;;;;;;;;4943531;29;20392;-84
2023/07/04 12:34:43;;;;;;;6.00;1.88;;;;;;;;;;4918766;29;20487;-85
2023/07/04 12:37:16;;;;;;;6.35;2.08;;;;;;;;;;4942302;29;20043;-84
2023/07/04 12:39:44;;;;;;;5.53;1.77;;;;;;;;;;4912116;29;20104;-84
2023/07/04 12:42:20;;;;;;;6.35;1.85;;;;;;;;;;4924711;29;20042;-84
2023/07/04 12:44:49;;;;;;;7.40;2.42;;;;;;;;;;4924721;29;20455;-80
2023/07/04 12:47:20;;;;;;;4.65;2.05;;;;;;;;;;4927947;29;20187;-82
2023/07/04 12:49:46;;;;;;;5.90;2.00;;;;;;;;;;4912713;29;20036;-83
2023/07/04 12:52:12;;;;;;;7.75;2.25;;;;;;;;;;4913119;29;20039;-81
2023/07/04 12:54:39;;;;;;;7.38;2.22;;;;;;;;;;4926779;29;20046;-81
2023/07/04 12:57:11;;;;;;;6.18;2.28;;;;;;;;;;4923986;29;20411;-81
2023/07/04 12:59:39;;;;;;;6.40;2.13;;;;;;;;;;4943314;29;20059;-85
2023/07/04 13:02:24;;;;;;;7.22;2.45;;;;;;;;;;4910986;29;20040;-83
2023/07/04 13:05:12;;;;;;;6.57;2.00;;;;;;;;;;4923765;29;20047;-82
2023/07/04 13:07:37;;;;;;;5.38;2.00;;;;;;;;;;4819194;29;20113;-82
2023/07/04 13:10:03;;;;;;;9.00;2.15;;;;;;;;;;4835050;29;20568;-81
2023/07/04 13:12:31;;;;;;;5.82;2.15;;;;;;;;;;4835069;29;20041;-83
2023/07/04 13:15:24;;;;;;;8.02;2.20;;;;;;;;;;4816733;29;20696;-85
2023/07/04 13:17:54;;;;;;;6.63;2.17;;;;;;;;;;4821371;29;20056;-85
2023/07/04 13:20:25;;;;;;;6.50;2.20;;;;;;;;;;4821052;29;20049;-84
2023/07/04 13:22:50;;;;;;;5.15;1.85;;;;;;;;;;4838907;29;20059;-85
2023/07/04 13:25:23;;;;;;;5.75;1.95;;;;;;;;;;4853091;29;20068;-84
2023/07/04 13:27:49;;;;;;;5.40;2.00;;;;;;;;;;4853068;29;20034;-84
2023/07/04 13:30:35;;;;;;;5.15;1.60;;;;;;;;;;4826985;29;20044;-84
2023/07/04 13:33:00;;;;;;;7.20;1.80;;;;;;;;;;4838334;29;20050;-82
2023/07/04 13:35:39;;;;;;;6.97;1.85;;;;;;;;;;4853954;29;20048;-83
2023/07/04 13:38:05;;;;;;;6.50;1.70;;;;;;;;;;4837246;29;20038;-83
2023/07/04 13:40:30;;;;;;;4.40;1.60;;;;;;;;;;4853358;29;20064;-83
2023/07/04 13:43:12;;;;;;;7.47;1.85;;;;;;;;;;4839586;29;20081;-84
2023/07/04 13:45:37;;;;;;;4.93;1.60;;;;;;;;;;4920371;29;20099;-83
2023/07/04 13:48:03;;;;;;;5.28;1.70;;;;;;;;;;4914854;29;20428;-83
2023/07/04 13:50:30;;;;;;;3.83;1.55;;;;;;;;;;4930320;29;20039;-83
2023/07/04 13:52:55;;;;;;;7.85;1.80;;;;;;;;;;4899734;29;20028;-83
2023/07/04 13:55:26;;;;;;;8.40;1.80;;;;;;;;;;4903236;29;20036;-84
2023/07/04 13:57:52;;;;;;;5.50;1.65;;;;;;;;;;4928898;29;20035;-83
2023/07/04 14:00:17;;;;;;;5.75;1.70;;;;;;;;;;4945437;29;20050;-83
2023/07/04 14:02:43;;;;;;;5.53;1.80;;;;;;;;;;4928661;29;20552;-82
2023/07/04 14:05:08;;;;;;;4.47;1.83;;;;;;;;;;4929023;29;20107;-83
2023/07/04 14:07:41;;;;;;;6.78;2.13;;;;;;;;;;4915843;29;20044;-83
2023/07/04 14:10:08;;;;;;;5.10;1.80;;;;;;;;;;4929941;28;20032;-83
2023/07/04 14:12:34;;;;;;;4.60;1.80;;;;;;;;;;4905859;29;20028;-83
2023/07/04 14:14:59;;;;;;;5.78;1.90;;;;;;;;;;4927527;29;20043;-85
2023/07/04 14:17:25;;;;;;;4.55;1.70;;;;;;;;;;4911638;29;20038;-82
2023/07/04 14:19:53;;;;;;;4.65;1.60;;;;;;;;;;4928959;29;20066;-82
2023/07/04 14:22:18;;;;;;;4.55;1.70;;;;;;;;;;4927284;29;20042;-83
2023/07/04 14:24:44;;;;;;;4.53;2.00;;;;;;;;;;4929627;29;20036;-84
2023/07/04 14:27:09;;;;;;;8.27;1.90;;;;;;;;;;4906073;29;20031;-83
2023/07/04 14:29:35;;;;;;;6.07;1.83;;;;;;;;;;4931171;29;20032;-84
2023/07/04 14:32:01;;;;;;;5.80;1.80;;;;;;;;;;4943748;28;20102;-83
2023/07/04 14:34:26;;;;;;;5.53;1.70;;;;;;;;;;4920856;29;20071;-82
2023/07/04 14:36:52;;;;;;;10.20;2.15;;;;;;;;;;4900191;29;20514;-82
2023/07/04 14:39:18;;;;;;;5.22;1.80;;;;;;;;;;4913303;29;20036;-83
2023/07/04 14:41:44;;;;;;;6.32;2.00;;;;;;;;;;4911904;29;20051;-82
2023/07/04 14:44:10;;;;;;;5.00;1.90;;;;;;;;;;4905016;29;20119;-83
2023/07/04 14:46:36;;;;;;;5.18;1.83;;;;;;;;;;4913640;29;20462;-85
2023/07/04 14:49:01;;;;;;;7.50;1.70;;;;;;;;;;4913752;29;20099;-84
2023/07/04 14:51:45;;;;;;;5.50;1.83;;;;;;;;;;4913321;29;20027;-82
2023/07/04 14:54:11;;;;;;;6.43;1.80;;;;;;;;;;4904574;29;20122;-83
2023/07/04 14:56:46;;;;;;;5.10;1.95;;;;;;;;;;4942833;29;20500;-82